createdAt,value
2018-08-06T00:00:41.713Z,5.70
2018-08-06T00:03:10.409Z,5.87
2018-08-06T00:05:38.986Z,6.00
2018-08-06T00:08:07.972Z,6.40
2018-08-06T00:10:36.564Z,5.47
2018-08-06T00:13:05.165Z,5.80
2018-08-06T00:15:33.707Z,5.77
2018-08-06T00:18:02.276Z,5.53
2018-08-06T00:20:30.866Z,5.73
2018-08-06T00:22:59.436Z,5.23
2018-08-06T00:25:27.949Z,5.20
2018-08-06T00:27:56.509Z,5.70
2018-08-06T00:30:25.077Z,5.73
2018-08-06T00:32:53.601Z,6.07
2018-08-06T00:35:22.089Z,5.57
2018-08-06T00:37:50.653Z,5.47
2018-08-06T00:40:20.670Z,5.60
2018-08-06T00:42:49.697Z,5.33
2018-08-06T00:45:19.984Z,6.03
2018-08-06T00:47:49.181Z,5.80
2018-08-06T00:50:17.786Z,5.70
2018-08-06T00:52:46.417Z,5.53
2018-08-06T00:55:19.040Z,5.50
2018-08-06T00:57:47.639Z,5.20
2018-08-06T01:00:17.117Z,5.43
2018-08-06T01:02:45.687Z,5.33
2018-08-06T01:05:15.113Z,5.23
2018-08-06T01:07:44.247Z,5.67
2018-08-06T01:10:18.204Z,5.57
2018-08-06T01:12:46.815Z,5.43
2018-08-06T01:15:17.729Z,5.33
2018-08-06T01:17:46.381Z,5.73
2018-08-06T01:20:15.316Z,5.70
2018-08-06T01:22:44.640Z,5.47
2018-08-06T01:25:13.841Z,5.43
2018-08-06T01:27:42.428Z,5.47
2018-08-06T01:30:13.345Z,5.60
2018-08-06T01:32:42.049Z,5.63
2018-08-06T01:35:11.361Z,5.70
2018-08-06T01:37:39.966Z,5.93
2018-08-06T01:40:12.033Z,5.70
2018-08-06T01:42:40.841Z,5.60
2018-08-06T01:45:10.161Z,5.83
2018-08-06T01:47:39.018Z,5.83
2018-08-06T01:50:08.557Z,5.73
2018-08-06T01:52:37.235Z,5.60
2018-08-06T01:55:05.874Z,5.90
2018-08-06T01:57:34.629Z,5.20
2018-08-06T02:00:03.426Z,6.10
2018-08-06T02:02:32.031Z,5.57
2018-08-06T02:05:00.571Z,5.60
2018-08-06T02:07:29.223Z,5.87
2018-08-06T02:09:57.725Z,5.30
2018-08-06T02:12:26.368Z,5.40
2018-08-06T02:14:54.907Z,6.20
2018-08-06T02:17:23.723Z,6.23
2018-08-06T02:19:52.947Z,5.63
2018-08-06T02:22:22.572Z,5.90
2018-08-06T02:24:51.137Z,5.30
2018-08-06T02:27:19.721Z,5.47
2018-08-06T02:29:48.300Z,5.90
2018-08-06T02:32:16.825Z,5.70
2018-08-06T02:34:45.475Z,6.10
2018-08-06T02:37:14.069Z,6.03
2018-08-06T02:39:42.675Z,5.53
2018-08-06T02:42:11.187Z,5.47
2018-08-06T02:44:39.732Z,6.03
2018-08-06T02:47:08.277Z,5.70
2018-08-06T02:49:36.900Z,5.77
2018-08-06T02:52:05.885Z,6.00
2018-08-06T02:54:34.395Z,5.53
2018-08-06T02:57:02.949Z,6.03
2018-08-06T02:59:31.534Z,5.90
2018-08-06T03:02:00.118Z,5.90
2018-08-06T03:04:28.668Z,5.70
2018-08-06T03:06:57.297Z,5.63
2018-08-06T03:09:25.896Z,6.20
2018-08-06T03:11:54.444Z,5.83
2018-08-06T03:14:22.978Z,5.80
2018-08-06T03:16:51.566Z,6.20
2018-08-06T03:19:20.159Z,6.00
2018-08-06T03:21:48.759Z,6.03
2018-08-06T03:24:17.341Z,6.20
2018-08-06T03:26:45.905Z,6.13
2018-08-06T03:29:14.546Z,5.57
2018-08-06T03:31:43.056Z,6.20
2018-08-06T03:34:11.676Z,6.47
2018-08-06T03:36:40.281Z,5.93
2018-08-06T03:39:10.305Z,6.73
2018-08-06T03:41:38.976Z,6.97
2018-08-06T03:44:08.079Z,6.67
2018-08-06T03:46:36.899Z,7.17
2018-08-06T03:49:05.595Z,6.77
2018-08-06T03:51:34.179Z,7.00
2018-08-06T03:54:02.765Z,6.93
2018-08-06T03:56:31.288Z,7.07
2018-08-06T03:58:59.873Z,6.47
2018-08-06T04:01:28.610Z,6.63
2018-08-06T04:03:57.252Z,6.73
2018-08-06T04:06:25.874Z,6.43
2018-08-06T04:08:54.502Z,6.23
2018-08-06T04:11:23.193Z,6.40
2018-08-06T04:13:51.858Z,6.20
2018-08-06T04:16:20.538Z,5.93
2018-08-06T04:18:50.412Z,5.67
2018-08-06T04:21:19.744Z,6.20
2018-08-06T04:23:48.488Z,6.10
2018-08-06T04:26:17.156Z,6.30
2018-08-06T04:28:45.798Z,6.20
2018-08-06T04:31:14.443Z,6.00
2018-08-06T04:33:43.064Z,5.97
2018-08-06T04:36:11.662Z,6.03
2018-08-06T04:38:41.255Z,5.90
2018-08-06T04:41:09.942Z,6.20
2018-08-06T04:43:38.614Z,6.03
2018-08-06T04:46:07.349Z,5.93
2018-08-06T04:48:35.804Z,5.80
2018-08-06T04:51:04.457Z,6.17
2018-08-06T04:53:33.326Z,6.20
2018-08-06T04:56:01.951Z,5.67
2018-08-06T04:58:30.497Z,5.67
2018-08-06T05:00:59.042Z,5.63
2018-08-06T05:03:27.679Z,5.90
2018-08-06T05:05:56.249Z,5.50
2018-08-06T05:11:18.627Z,5.60
2018-08-06T05:13:47.341Z,5.73
2018-08-06T05:16:16.026Z,6.00
2018-08-06T05:18:44.663Z,5.80
2018-08-06T05:21:13.243Z,5.03
2018-08-06T05:23:51.503Z,5.13
2018-08-06T05:26:20.236Z,5.60
2018-08-06T05:28:49.558Z,5.57
2018-08-06T05:31:18.289Z,5.10
2018-08-06T05:33:46.872Z,5.23
2018-08-06T05:36:15.733Z,5.97
2018-08-06T05:38:44.370Z,5.40
2018-08-06T05:41:12.982Z,5.30
2018-08-06T05:43:41.742Z,5.23
2018-08-06T05:46:10.654Z,5.87
2018-08-06T05:48:40.066Z,5.63
2018-08-06T05:51:09.457Z,5.17
2018-08-06T05:53:38.053Z,5.57
2018-08-06T05:56:07.718Z,5.80
2018-08-06T05:58:36.358Z,5.30
2018-08-06T06:01:05.029Z,5.40
2018-08-06T06:03:33.570Z,5.30
2018-08-06T06:06:02.242Z,5.40
2018-08-06T06:08:30.906Z,7.17
2018-08-06T06:10:59.687Z,5.10
2018-08-06T06:13:28.335Z,5.13
2018-08-06T06:15:57.002Z,5.00
2018-08-06T06:18:25.682Z,5.17
2018-08-06T06:20:54.950Z,5.47
2018-08-06T06:23:23.566Z,5.40
2018-08-06T06:25:52.349Z,5.17
2018-08-06T06:28:21.036Z,5.27
2018-08-06T06:30:49.725Z,5.10
2018-08-06T06:33:18.541Z,5.50
2018-08-06T06:35:47.317Z,5.30
2018-08-06T06:38:16.225Z,5.50
2018-08-06T06:40:45.128Z,5.27
2018-08-06T06:43:14.276Z,4.73
2018-08-06T06:45:42.934Z,4.90
2018-08-06T06:48:11.718Z,4.87
2018-08-06T06:50:40.334Z,5.30
2018-08-06T06:53:09.554Z,5.40
2018-08-06T06:55:38.114Z,5.55
2018-08-06T06:58:07.023Z,4.90
2018-08-06T07:00:35.665Z,4.95
2018-08-06T07:03:04.454Z,4.65
2018-08-06T07:05:33.131Z,5.03
2018-08-06T07:08:01.686Z,4.70
2018-08-06T07:10:30.584Z,5.28
2018-08-06T07:12:59.227Z,5.25
2018-08-06T07:15:27.833Z,5.03
2018-08-06T07:17:56.442Z,5.95
2018-08-06T07:20:24.977Z,4.58
2018-08-06T07:22:53.591Z,5.90
2018-08-06T07:25:22.206Z,5.47
2018-08-06T07:27:50.769Z,4.62
2018-08-06T07:30:19.305Z,4.35
2018-08-06T07:32:47.910Z,4.87
2018-08-06T07:35:16.476Z,5.10
2018-08-06T07:37:45.098Z,4.72
2018-08-06T07:40:14.674Z,4.67
2018-08-06T07:42:43.268Z,4.20
2018-08-06T07:45:19.124Z,4.70
2018-08-06T07:47:48.417Z,5.65
2018-08-06T07:50:18.839Z,4.08
2018-08-06T07:52:47.609Z,6.87
2018-08-06T07:55:16.270Z,4.20
2018-08-06T07:57:44.890Z,4.60
2018-08-06T08:00:16.266Z,4.53
2018-08-06T08:02:44.853Z,4.28
2018-08-06T08:05:14.799Z,4.20
2018-08-06T08:07:46.849Z,4.22
2018-08-06T08:10:18.006Z,4.00
2018-08-06T08:12:47.136Z,4.08
2018-08-06T08:15:20.402Z,4.20
2018-08-06T08:17:49.045Z,4.00
2018-08-06T08:20:18.332Z,3.90
2018-08-06T08:22:49.079Z,4.10
2018-08-06T08:25:19.641Z,4.28
2018-08-06T08:27:48.277Z,3.75
2018-08-06T08:30:17.542Z,4.20
2018-08-06T08:32:46.168Z,3.80
2018-08-06T08:35:18.572Z,3.60
2018-08-06T08:37:52.082Z,3.87
2018-08-06T08:40:22.113Z,3.70
2018-08-06T08:42:53.713Z,3.70
2018-08-06T08:45:22.302Z,4.12
2018-08-06T08:47:50.919Z,4.05
2018-08-06T08:50:20.421Z,3.80
2018-08-06T08:52:49.135Z,4.08
2018-08-06T08:55:18.903Z,3.70
2018-08-06T08:57:47.460Z,3.50
2018-08-06T09:00:20.794Z,3.70
2018-08-06T09:02:50.709Z,3.70
2018-08-06T09:05:19.725Z,3.72
2018-08-06T09:07:48.965Z,3.58
2018-08-06T09:10:18.345Z,3.80
2018-08-06T09:12:47.478Z,4.05
2018-08-06T09:15:20.650Z,3.40
2018-08-06T09:17:49.210Z,3.70
2018-08-06T09:20:17.777Z,3.80
2018-08-06T09:22:46.920Z,3.87
2018-08-06T09:25:18.601Z,3.40
2018-08-06T09:27:50.194Z,3.55
2018-08-06T09:30:20.043Z,3.80
2018-08-06T09:33:03.106Z,3.60
2018-08-06T09:35:31.673Z,3.45
2018-08-06T09:38:00.188Z,3.65
2018-08-06T09:40:28.745Z,3.58
2018-08-06T09:42:57.301Z,4.03
2018-08-06T09:45:25.940Z,3.70
2018-08-06T09:47:54.976Z,3.60
2018-08-06T09:50:23.625Z,3.40
2018-08-06T09:52:53.142Z,3.58
2018-08-06T09:55:24.053Z,3.30
2018-08-06T09:57:52.963Z,3.45
2018-08-06T10:00:27.731Z,4.28
2018-08-06T10:02:57.620Z,4.22
2018-08-06T10:05:26.818Z,3.83
2018-08-06T10:07:55.327Z,4.33
2018-08-06T10:10:24.103Z,4.78
2018-08-06T10:12:52.632Z,4.55
2018-08-06T10:15:21.884Z,5.00
2018-08-06T10:17:51.990Z,4.72
2018-08-06T10:20:21.838Z,4.62
2018-08-06T10:22:50.674Z,3.80
2018-08-06T10:25:19.245Z,4.15
2018-08-06T10:27:48.279Z,3.92
2018-08-06T10:30:18.859Z,4.12
2018-08-06T10:32:48.330Z,3.87
2018-08-06T10:35:18.056Z,3.70
2018-08-06T10:37:46.568Z,3.77
2018-08-06T10:40:16.793Z,3.72
2018-08-06T10:42:45.749Z,4.00
2018-08-06T10:45:15.655Z,3.90
2018-08-06T10:47:44.232Z,3.90
2018-08-06T10:50:13.565Z,3.60
2018-08-06T10:52:42.062Z,3.92
2018-08-06T10:55:11.175Z,3.80
2018-08-06T10:57:41.194Z,3.83
2018-08-06T11:00:18.058Z,4.00
2018-08-06T11:02:47.054Z,3.90
2018-08-06T11:05:16.410Z,3.90
2018-08-06T11:07:44.966Z,4.12
2018-08-06T11:10:14.972Z,4.35
2018-08-06T11:12:43.534Z,3.95
2018-08-06T11:15:21.973Z,3.62
2018-08-06T11:17:50.561Z,3.90
2018-08-06T11:20:19.838Z,4.28
2018-08-06T11:22:48.351Z,4.30
2018-08-06T11:25:18.906Z,3.92
2018-08-06T11:27:47.595Z,4.28
2018-08-06T11:30:17.946Z,4.10
2018-08-06T11:32:47.461Z,3.98
2018-08-06T11:35:16.309Z,3.98
2018-08-06T11:37:44.845Z,3.98
2018-08-06T11:40:14.522Z,4.05
2018-08-06T11:42:43.874Z,4.03
2018-08-06T11:45:18.369Z,4.00
2018-08-06T11:47:46.926Z,4.00
2018-08-06T11:50:15.473Z,4.20
2018-08-06T11:52:47.991Z,4.37
2018-08-06T11:55:16.481Z,4.40
2018-08-06T11:57:45.003Z,3.92
2018-08-06T12:00:17.005Z,5.58
2018-08-06T12:02:46.753Z,4.60
2018-08-06T12:05:15.294Z,4.12
2018-08-06T12:07:43.827Z,3.85
2018-08-06T12:10:15.295Z,4.20
2018-08-06T12:12:45.830Z,3.92
2018-08-06T12:15:14.514Z,3.52
2018-08-06T12:17:43.442Z,3.62
2018-08-06T12:20:13.962Z,6.28
2018-08-06T12:22:45.343Z,4.15
2018-08-06T12:25:14.713Z,4.30
2018-08-06T12:27:43.723Z,4.55
2018-08-06T12:30:15.325Z,4.47
2018-08-06T12:32:47.130Z,4.25
2018-08-06T12:35:16.233Z,5.60
2018-08-06T12:37:45.632Z,5.40
2018-08-06T12:40:17.301Z,4.60
2018-08-06T12:42:45.827Z,5.37
2018-08-06T14:10:13.192Z,4.03
2018-08-06T14:12:41.681Z,4.10
2018-08-06T14:15:11.498Z,4.37
2018-08-06T14:17:40.958Z,3.72
2018-08-06T14:20:11.076Z,4.03
2018-08-06T14:22:39.561Z,3.67
2018-08-06T14:25:09.396Z,3.90
2018-08-06T14:27:38.166Z,5.08
2018-08-06T14:30:09.722Z,4.05
2018-08-06T14:32:38.238Z,3.90
2018-08-06T14:35:07.133Z,4.00
2018-08-06T14:37:35.660Z,4.25
2018-08-06T14:40:05.077Z,4.05
2018-08-06T14:42:33.572Z,4.10
2018-08-06T14:45:02.113Z,4.30
2018-08-06T14:47:30.640Z,3.98
2018-08-06T14:49:59.165Z,3.95
2018-08-06T14:52:27.641Z,4.42
2018-08-06T14:54:56.149Z,4.50
2018-08-06T14:57:24.661Z,4.60
2018-08-06T14:59:56.111Z,4.28
2018-08-06T15:02:24.676Z,4.53
2018-08-06T15:04:56.814Z,4.35
2018-08-06T15:07:25.373Z,4.47
2018-08-06T15:09:53.870Z,4.67
2018-08-06T15:12:22.346Z,4.45
2018-08-06T15:14:50.882Z,4.40
2018-08-06T15:17:19.383Z,4.65
2018-08-06T15:19:47.898Z,4.40
2018-08-06T15:22:16.449Z,4.30
2018-08-06T15:24:45.007Z,4.37
2018-08-06T15:27:14.006Z,4.12
2018-08-06T15:29:42.524Z,4.50
2018-08-06T15:32:11.085Z,4.45
2018-08-06T15:34:39.594Z,4.25
2018-08-06T15:37:08.098Z,4.42
2018-08-06T15:39:36.634Z,4.55
2018-08-06T15:42:05.196Z,4.12
2018-08-06T15:44:35.803Z,4.42
2018-08-06T15:47:04.291Z,4.20
2018-08-06T15:49:32.821Z,4.35
2018-08-06T15:52:01.331Z,4.00
2018-08-06T15:54:29.850Z,4.00
2018-08-06T15:56:58.334Z,3.80
2018-08-06T15:59:26.789Z,4.20
2018-08-06T16:01:55.299Z,4.10
2018-08-06T16:04:23.770Z,4.12
2018-08-06T16:06:52.292Z,4.17
2018-08-06T16:09:20.810Z,4.50
2018-08-06T16:11:49.391Z,4.42
2018-08-06T16:14:18.129Z,4.35
2018-08-06T16:16:46.659Z,4.25
2018-08-06T16:19:15.124Z,4.50
2018-08-06T16:21:43.631Z,4.20
2018-08-06T16:24:12.097Z,4.03
2018-08-06T16:26:40.593Z,4.22
2018-08-06T16:29:09.070Z,3.90
2018-08-06T16:31:37.573Z,3.98
2018-08-06T16:34:06.067Z,4.53
2018-08-06T16:36:34.681Z,4.00
2018-08-06T16:39:03.278Z,4.20
2018-08-06T16:41:31.758Z,4.22
2018-08-06T16:44:00.291Z,4.30
2018-08-06T16:46:28.773Z,4.05
2018-08-06T16:48:58.125Z,4.30
2018-08-06T16:51:26.667Z,4.12
2018-08-06T16:53:55.158Z,4.17
2018-08-06T16:56:23.655Z,4.42
2018-08-06T16:58:52.186Z,4.00
2018-08-06T17:01:20.753Z,4.28
2018-08-06T17:03:49.257Z,3.90
2018-08-06T17:06:17.835Z,4.15
2018-08-06T17:08:46.370Z,3.95
2018-08-06T17:11:14.933Z,4.83
2018-08-06T17:13:43.433Z,4.72
2018-08-06T17:16:12.177Z,4.33
2018-08-06T17:18:40.713Z,4.12
2018-08-06T17:21:09.278Z,4.00
2018-08-06T17:23:37.770Z,3.90
2018-08-06T17:26:06.354Z,3.87
2018-08-06T17:28:34.864Z,4.45
2018-08-06T17:31:03.423Z,3.95
2018-08-06T17:33:32.007Z,3.90
2018-08-06T17:36:00.550Z,4.00
2018-08-06T17:38:29.113Z,4.50
2018-08-06T17:40:57.628Z,3.87
2018-08-06T17:43:26.184Z,5.25
2018-08-06T17:45:54.738Z,3.95
2018-08-06T17:48:23.278Z,4.20
2018-08-06T17:50:51.755Z,3.92
2018-08-06T17:53:20.293Z,4.08
2018-08-06T17:55:48.952Z,4.42
2018-08-06T17:58:17.366Z,3.92
2018-08-06T18:00:45.850Z,3.95
2018-08-06T18:03:14.379Z,4.00
2018-08-06T18:05:42.901Z,4.40
2018-08-06T18:08:11.446Z,4.10
2018-08-06T18:10:40.654Z,4.33
2018-08-06T18:13:09.212Z,3.98
2018-08-06T18:15:37.781Z,4.40
2018-08-06T18:18:07.050Z,4.22
2018-08-06T18:20:35.534Z,4.22
2018-08-06T18:23:04.384Z,5.20
2018-08-06T18:25:32.862Z,4.12
2018-08-06T18:28:01.366Z,3.72
2018-08-06T18:30:29.818Z,4.83
2018-08-06T18:32:58.366Z,4.28
2018-08-06T18:35:26.861Z,5.08
2018-08-06T18:37:55.369Z,4.35
2018-08-06T18:40:24.443Z,4.30
2018-08-06T18:42:53.073Z,4.35
2018-08-06T18:45:22.193Z,4.20
2018-08-06T18:47:51.545Z,4.28
2018-08-06T18:50:20.501Z,4.65
2018-08-06T18:52:49.630Z,4.40
2018-08-06T18:55:18.593Z,4.40
2018-08-06T18:57:47.548Z,4.78
2018-08-06T19:00:20.313Z,8.33
2018-08-06T19:02:49.009Z,6.58
2018-08-06T19:05:17.563Z,5.37
2018-08-06T19:07:46.142Z,6.78
2018-08-06T19:10:14.667Z,5.40
2018-08-06T19:12:48.517Z,13.95
2018-08-06T19:15:17.010Z,6.00
2018-08-06T19:17:50.945Z,5.43
2018-08-06T19:20:19.480Z,4.73
2018-08-06T19:22:48.162Z,7.03
2018-08-06T19:25:21.874Z,6.77
2018-08-06T19:27:50.508Z,5.77
2018-08-06T19:30:19.027Z,6.13
2018-08-06T19:32:47.603Z,8.50
2018-08-06T19:35:16.248Z,6.30
2018-08-06T19:37:46.506Z,5.57
2018-08-06T19:40:15.298Z,6.70
2018-08-06T19:42:48.905Z,5.47
2018-08-06T19:45:17.458Z,8.17
2018-08-06T19:47:46.011Z,7.63
2018-08-06T19:50:50.389Z,9.57
2018-08-06T19:53:18.969Z,9.00
2018-08-06T19:55:52.752Z,11.13
2018-08-06T19:58:21.273Z,8.63
2018-08-06T20:00:49.993Z,7.23
2018-08-06T20:03:18.535Z,7.90
2018-08-06T20:05:47.073Z,7.40
2018-08-06T20:08:15.635Z,7.67
2018-08-06T20:10:44.235Z,7.23
2018-08-06T20:13:12.787Z,6.93
2018-08-06T20:15:41.394Z,7.87
2018-08-06T20:18:09.947Z,7.50
2018-08-06T20:20:38.563Z,6.17
2018-08-06T20:23:07.202Z,6.70
2018-08-06T20:25:35.750Z,7.73
2018-08-06T20:28:04.419Z,7.00
2018-08-06T20:30:32.984Z,6.70
2018-08-06T20:33:01.521Z,6.23
2018-08-06T20:35:30.143Z,6.37
2018-08-06T20:37:58.667Z,7.13
2018-08-06T20:40:27.249Z,7.07
2018-08-06T20:42:55.799Z,6.53
2018-08-06T20:45:24.370Z,6.30
2018-08-06T20:47:52.916Z,6.73
2018-08-06T20:50:22.645Z,7.60
2018-08-06T20:52:52.213Z,6.67
2018-08-06T20:55:20.830Z,7.03
2018-08-06T20:57:49.954Z,7.00
2018-08-06T21:00:21.616Z,6.93
2018-08-06T21:02:50.869Z,7.20
2018-08-06T21:05:19.524Z,6.80
2018-08-06T21:07:48.191Z,7.07
2018-08-06T21:10:17.549Z,7.40
2018-08-06T21:12:46.494Z,6.80
2018-08-06T21:15:15.718Z,6.60
2018-08-06T21:17:44.564Z,7.33
2018-08-06T21:20:14.381Z,6.77
2018-08-06T21:22:44.392Z,6.50
2018-08-06T21:25:13.331Z,7.10
2018-08-06T21:27:43.141Z,7.20
2018-08-06T21:30:14.084Z,6.90
2018-08-06T21:32:44.776Z,7.10
2018-08-06T21:35:13.385Z,7.07
2018-08-06T21:37:41.909Z,7.23
2018-08-06T21:40:10.565Z,6.90
2018-08-06T21:42:39.442Z,6.63
2018-08-06T21:45:07.938Z,6.87
2018-08-06T21:47:36.526Z,6.87
2018-08-06T21:50:06.408Z,7.03
2018-08-06T21:52:35.043Z,7.00
2018-08-06T21:55:03.600Z,7.30
2018-08-06T21:57:32.185Z,7.40
2018-08-06T22:00:00.743Z,7.17
2018-08-06T22:02:29.476Z,7.37
2018-08-06T22:04:58.041Z,7.17
2018-08-06T22:07:26.599Z,7.80
2018-08-06T22:09:55.125Z,7.30
2018-08-06T22:12:23.694Z,7.87
2018-08-06T22:14:52.631Z,7.93
2018-08-06T22:17:21.207Z,7.33
2018-08-06T22:19:49.699Z,7.57
2018-08-06T22:22:18.253Z,7.60
2018-08-06T22:24:46.930Z,7.77
2018-08-06T22:27:15.486Z,7.90
2018-08-06T22:29:44.026Z,7.47
2018-08-06T22:32:12.604Z,6.87
2018-08-06T22:34:41.169Z,7.10
2018-08-06T22:37:09.778Z,6.73
2018-08-06T22:39:38.291Z,7.13
2018-08-06T22:42:06.881Z,7.00
2018-08-06T22:44:35.406Z,7.00
2018-08-06T22:47:03.989Z,6.80
2018-08-06T22:49:32.605Z,7.00
2018-08-06T22:52:01.123Z,7.43
2018-08-06T22:54:29.679Z,7.40
2018-08-06T22:56:58.227Z,7.83
2018-08-06T22:59:26.762Z,7.13
2018-08-06T23:01:55.465Z,8.97
2018-08-06T23:04:24.476Z,8.10
2018-08-06T23:06:53.087Z,7.13
2018-08-06T23:09:21.595Z,8.17
2018-08-06T23:23:22.099Z,7.77
2018-08-06T23:25:50.609Z,8.30
2018-08-06T23:31:11.939Z,8.13
2018-08-06T23:33:40.515Z,7.90
2018-08-06T23:36:09.178Z,7.60
2018-08-06T23:38:37.822Z,7.77
2018-08-06T23:41:07.713Z,7.70
2018-08-06T23:43:36.432Z,7.53
2018-08-06T23:46:05.014Z,8.00
2018-08-06T23:48:33.896Z,8.30
2018-08-06T23:51:02.394Z,7.47
2018-08-06T23:53:30.971Z,7.80
2018-08-06T23:55:59.534Z,8.07
2018-08-06T23:58:28.222Z,7.80
